Time;durP1;ratioP1;P1;durP2;ratioP2;P2;SDS_P1;SDS_P2;PMS_P1;PMS_P2;Temp;Humidity;BMP_temperature;BMP_pressure;BME280_temperature;BME280_humidity;BME280_pressure;Samples;Min_cycle;Max_cycle;Signal;HPM_P1;HPM_P2
2021/09/29 00:01:24;;;;;;;34.58;19.65;;;;;;;7.00;74.71;97738.33;1771952;80;25721;-93
2021/09/29 00:03:50;;;;;;;30.72;19.75;;;;;;;6.91;74.62;97738.05;1771515;79;26037;-93
2021/09/29 00:06:17;;;;;;;29.20;19.52;;;;;;;6.88;74.68;97743.80;1737883;82;25798;-95
2021/09/29 00:08:43;;;;;;;27.45;18.25;;;;;;;6.84;74.82;97746.00;1742832;80;27356;-96
2021/09/29 00:11:10;;;;;;;26.77;18.02;;;;;;;6.80;74.77;97748.19;1765154;81;25836;-96
2021/09/29 00:13:37;;;;;;;29.40;17.52;;;;;;;6.79;74.74;97749.71;1760553;80;25736;-94
2021/09/29 00:16:04;;;;;;;29.25;19.45;;;;;;;6.78;74.77;97746.19;1769262;80;26120;-93
2021/09/29 00:18:30;;;;;;;26.12;17.20;;;;;;;6.76;74.76;97745.53;1771259;80;25490;-94
2021/09/29 00:20:57;;;;;;;21.82;16.42;;;;;;;6.67;74.81;97721.63;1739151;81;27401;-92
2021/09/29 00:23:24;;;;;;;22.15;15.85;;;;;;;6.72;74.71;97745.58;1757095;79;25819;-94
2021/09/29 00:25:50;;;;;;;24.47;15.93;;;;;;;6.67;74.73;97741.75;1760956;80;25704;-96
2021/09/29 00:28:17;;;;;;;22.45;15.88;;;;;;;6.64;74.76;97742.94;1768560;81;26057;-95
2021/09/29 00:31:44;;;;;;;27.15;17.48;;;;;;;6.58;74.71;97738.30;1768059;79;25634;-93
2021/09/29 00:33:21;;;;;;;25.82;16.93;;;;;;;6.52;74.71;97740.88;1725857;81;27416;-93
2021/09/29 00:35:48;;;;;;;24.10;16.27;;;;;;;6.44;74.86;97739.89;1761178;79;25751;-95
2021/09/29 00:38:15;;;;;;;28.25;17.55;;;;;;;6.44;74.99;97738.55;1768998;79;25274;-89
2021/09/29 00:40:41;;;;;;;22.90;15.80;;;;;;;6.45;75.08;97733.52;1759602;79;25976;-96
2021/09/29 00:43:08;;;;;;;19.65;14.90;;;;;;;6.48;75.07;97737.20;1770448;80;25391;-93
2021/09/29 00:45:35;;;;;;;22.37;15.75;;;;;;;6.44;74.90;97739.05;1741036;82;27383;-92
2021/09/29 00:48:01;;;;;;;21.07;15.60;;;;;;;6.40;74.91;97731.06;1741390;82;25803;-92
2021/09/29 00:50:28;;;;;;;23.95;15.75;;;;;;;6.37;74.83;97732.75;1774885;80;26342;-92
2021/09/29 00:52:57;;;;;;;24.43;14.98;;;;;;;6.27;74.70;97734.83;1743094;79;26079;-91
2021/09/29 00:55:24;;;;;;;28.77;17.70;;;;;;;6.16;74.72;97736.02;1744102;81;25812;-93
2021/09/29 00:57:51;;;;;;;25.60;16.80;;;;;;;6.09;74.89;97733.22;1755422;79;28207;-93
2021/09/29 01:00:19;;;;;;;26.00;15.90;;;;;;;6.09;75.11;97730.55;1770022;80;25295;-96
2021/09/29 01:02:47;;;;;;;29.52;16.93;;;;;;;6.08;75.26;97731.55;1773658;80;25311;-90
2021/09/29 01:05:14;;;;;;;27.37;16.52;;;;;;;6.08;75.28;97731.55;1774402;80;26878;-94
2021/09/29 01:08:03;;;;;;;28.25;16.35;;;;;;;6.10;75.33;97731.38;1767180;79;26040;-96
2021/09/29 01:10:49;;;;;;;23.92;16.05;;;;;;;6.11;75.23;97733.05;1772417;80;27432;-91
2021/09/29 01:13:29;;;;;;;23.07;14.68;;;;;;;6.07;75.15;97725.02;1758398;80;25310;-90
2021/09/29 01:16:03;;;;;;;20.35;14.78;;;;;;;6.02;75.11;97718.88;1780649;79;25748;-90
2021/09/29 01:18:36;;;;;;;29.40;16.00;;;;;;;5.98;75.17;97720.22;1756746;79;25809;-91
2021/09/29 01:21:07;;;;;;;25.77;14.45;;;;;;;5.95;75.21;97723.23;1735849;81;25755;-92
2021/09/29 01:24:22;;;;;;;19.32;13.65;;;;;;;5.92;75.16;97716.88;1743310;80;28378;-90
2021/09/29 01:26:50;;;;;;;19.12;13.80;;;;;;;5.89;75.15;97719.09;1766211;80;26283;-93
2021/09/29 01:29:20;;;;;;;22.05;13.55;;;;;;;5.88;75.25;97711.56;1769290;80;25787;-90
2021/09/29 01:31:47;;;;;;;25.50;13.85;;;;;;;5.88;75.22;97706.20;1764631;79;26088;-93
2021/09/29 01:34:15;;;;;;;16.07;12.82;;;;;;;5.88;75.24;97706.67;1710905;82;25795;-93
2021/09/29 01:36:43;;;;;;;23.38;14.50;;;;;;;5.83;75.13;97710.37;1770202;79;27396;-92
2021/09/29 01:39:13;;;;;;;19.57;14.35;;;;;;;5.82;75.18;97708.70;1766802;80;25728;-91
2021/09/29 01:41:41;;;;;;;21.27;13.55;;;;;;;5.81;75.28;97709.20;1756784;80;25738;-92
2021/09/29 01:44:08;;;;;;;21.60;14.87;;;;;;;5.79;75.17;97701.87;1761010;80;25997;-94
2021/09/29 01:46:35;;;;;;;20.62;13.43;;;;;;;5.77;75.15;97699.36;1753976;79;25804;-93
2021/09/29 01:49:16;;;;;;;22.37;13.95;;;;;;;5.74;75.07;97696.19;1751472;80;28009;-92
2021/09/29 01:51:47;;;;;;;18.67;13.48;;;;;;;5.72;75.10;97687.48;1752543;80;25303;-92
2021/09/29 01:54:17;;;;;;;21.97;13.13;;;;;;;5.72;75.11;97684.80;1743451;80;25731;-92
2021/09/29 01:56:45;;;;;;;21.20;14.03;;;;;;;5.67;75.22;97685.34;1767973;80;26035;-90
2021/09/29 01:59:13;;;;;;;18.05;13.48;;;;;;;5.67;75.27;97689.36;1765519;80;25548;-94
2021/09/29 02:01:42;;;;;;;21.93;14.63;;;;;;;5.61;75.31;97681.16;1770132;80;27228;-95
2021/09/29 02:04:13;;;;;;;19.17;13.72;;;;;;;5.56;75.38;97678.16;1766273;81;25516;-89
2021/09/29 02:06:50;;;;;;;18.65;13.10;;;;;;;5.57;75.56;97678.49;1768790;81;25769;-92
2021/09/29 02:09:18;;;;;;;24.98;13.88;;;;;;;5.57;75.54;97674.48;1739705;81;26058;-94
2021/09/29 02:11:46;;;;;;;21.37;13.50;;;;;;;5.53;75.48;97673.17;1755448;81;25272;-90
2021/09/29 02:14:19;;;;;;;20.68;14.18;;;;;;;5.51;75.32;97668.49;1761535;81;27375;-94
2021/09/29 02:16:48;;;;;;;26.30;14.58;;;;;;;5.47;75.39;97677.87;1766783;80;25292;-91
2021/09/29 02:19:15;;;;;;;19.15;12.68;;;;;;;5.44;75.35;97664.31;1762426;81;25322;-90
2021/09/29 02:21:42;;;;;;;21.45;13.72;;;;;;;5.36;75.18;97673.22;1765084;81;26148;-90
2021/09/29 02:24:09;;;;;;;18.42;11.97;;;;;;;5.31;75.27;97666.73;1765518;80;25634;-89
2021/09/29 02:26:37;;;;;;;18.62;12.53;;;;;;;5.29;75.29;97672.75;1767030;79;27422;-89
2021/09/29 02:29:06;;;;;;;19.80;13.00;;;;;;;5.29;75.31;97665.56;1766608;80;26334;-90
2021/09/29 02:31:34;;;;;;;22.05;13.00;;;;;;;5.30;75.31;97663.22;1767291;81;25295;-91
2021/09/29 02:34:01;;;;;;;18.50;12.90;;;;;;;5.26;75.22;97662.38;1769953;80;25988;-91
2021/09/29 02:36:28;;;;;;;17.75;13.50;;;;;;;5.23;75.18;97657.36;1759897;81;25832;-90
2021/09/29 02:38:55;;;;;;;16.02;12.10;;;;;;;5.18;75.17;97661.91;1738514;82;28169;-91
2021/09/29 02:41:24;;;;;;;19.73;12.53;;;;;;;5.12;75.18;97657.23;1738236;82;25354;-90
2021/09/29 02:43:51;;;;;;;20.32;13.78;;;;;;;5.08;75.37;97659.91;1737663;82;25622;-91
2021/09/29 02:46:18;;;;;;;19.98;12.75;;;;;;;5.09;75.31;97662.91;1768543;81;25973;-90
2021/09/29 02:48:45;;;;;;;20.55;14.40;;;;;;;5.07;75.31;97661.74;1763992;81;25718;-89
2021/09/29 02:51:11;;;;;;;17.95;13.18;;;;;;;5.05;75.34;97657.59;1760864;78;27665;-93
2021/09/29 02:53:38;;;;;;;17.85;11.50;;;;;;;5.03;75.37;97664.95;1760061;80;25217;-89
2021/09/29 02:56:05;;;;;;;16.55;11.57;;;;;;;5.01;75.39;97659.77;1760377;79;25356;-89
2021/09/29 02:58:31;;;;;;;14.75;11.03;;;;;;;4.99;75.42;97663.11;1760279;78;26046;-90
2021/09/29 03:01:00;;;;;;;16.60;10.60;;;;;;;4.98;75.35;97662.77;1747710;79;25209;-89
2021/09/29 03:03:28;;;;;;;14.25;10.98;;;;;;;4.95;75.32;97653.73;1753039;78;27643;-88
2021/09/29 03:05:55;;;;;;;16.70;11.35;;;;;;;4.93;75.33;97656.28;1759859;79;25507;-90
2021/09/29 03:08:21;;;;;;;16.07;12.00;;;;;;;4.91;75.30;97652.94;1743728;80;25266;-88
2021/09/29 03:10:48;;;;;;;19.75;12.65;;;;;;;4.88;75.37;97653.27;1734671;82;26025;-88
2021/09/29 03:13:14;;;;;;;18.98;12.40;;;;;;;4.83;75.34;97650.28;1734580;82;25239;-90
2021/09/29 03:15:41;;;;;;;17.10;12.35;;;;;;;4.84;75.43;97652.76;1734499;81;27345;-89
2021/09/29 03:18:09;;;;;;;16.80;11.70;;;;;;;4.83;75.34;97654.29;1734346;80;25819;-89
2021/09/29 03:20:35;;;;;;;18.57;12.28;;;;;;;4.80;75.39;97654.13;1733950;82;25815;-89
2021/09/29 03:23:03;;;;;;;19.42;13.05;;;;;;;4.79;75.39;97660.97;1743462;79;25974;-89
2021/09/29 03:25:30;;;;;;;21.20;13.18;;;;;;;4.77;75.49;97651.78;1759894;80;25623;-89
2021/09/29 03:27:56;;;;;;;17.90;12.65;;;;;;;4.78;75.52;97657.97;1760168;81;27429;-88
2021/09/29 03:30:23;;;;;;;20.52;12.85;;;;;;;4.77;75.67;97650.44;1759778;79;25707;-88
2021/09/29 03:32:50;;;;;;;18.98;12.75;;;;;;;4.77;75.66;97650.94;1761725;80;25236;-93
2021/09/29 03:35:17;;;;;;;22.05;14.20;;;;;;;4.77;75.71;97658.47;1760034;80;26828;-89
2021/09/29 03:37:43;;;;;;;22.55;14.00;;;;;;;4.77;75.84;97655.79;1759843;81;25729;-89
2021/09/29 03:40:14;;;;;;;23.92;14.30;;;;;;;4.80;75.90;97651.95;1760219;79;28147;-88
2021/09/29 03:42:42;;;;;;;29.60;15.75;;;;;;;4.81;76.04;97656.30;1760101;81;25737;-89
2021/09/29 03:45:11;;;;;;;33.15;16.23;;;;;;;4.84;76.17;97650.08;1736633;81;25795;-89
2021/09/29 03:47:43;;;;;;;34.60;18.27;;;;;;;4.84;76.34;97647.41;1759290;80;26169;-90
2021/09/29 03:50:11;;;;;;;34.48;16.82;;;;;;;4.83;76.56;97640.39;1761437;80;25825;-96
2021/09/29 03:52:43;;;;;;;29.57;17.70;;;;;;;4.84;76.89;97642.06;1740444;81;27434;-90
2021/09/29 03:55:10;;;;;;;31.95;16.97;;;;;;;4.85;77.21;97645.57;1772747;80;25787;-95
2021/09/29 03:57:39;;;;;;;30.20;17.23;;;;;;;4.85;77.33;97638.88;1753524;80;25287;-89
2021/09/29 04:00:10;;;;;;;29.25;16.45;;;;;;;4.90;77.50;97639.22;1761758;80;25474;-96
2021/09/29 04:02:38;;;;;;;30.62;15.28;;;;;;;4.97;77.68;97638.86;1740156;82;25232;-89
2021/09/29 04:05:07;;;;;;;22.87;15.23;;;;;;;5.03;77.74;97635.52;1740450;82;27396;-90
2021/09/29 04:07:33;;;;;;;25.80;15.98;;;;;;;5.07;77.86;97639.53;1740234;82;25224;-89
2021/09/29 04:10:00;;;;;;;24.92;17.40;;;;;;;5.14;77.95;97632.48;1740339;81;25419;-89
2021/09/29 04:12:27;;;;;;;30.02;18.67;;;;;;;5.19;78.04;97623.44;1763970;80;25979;-90
2021/09/29 04:14:54;;;;;;;35.23;20.68;;;;;;;5.21;77.94;97617.39;1742222;81;25246;-94
2021/09/29 04:17:20;;;;;;;35.55;19.98;;;;;;;5.22;77.86;97620.40;1769393;80;27334;-90
2021/09/29 04:19:47;;;;;;;38.15;20.05;;;;;;;5.24;77.77;97622.91;1771511;80;26021;-89
2021/09/29 04:22:16;;;;;;;40.23;19.30;;;;;;;5.24;77.71;97620.23;1748825;81;25853;-90
2021/09/29 04:24:47;;;;;;;34.45;19.95;;;;;;;5.26;77.77;97614.20;1741979;82;25980;-93
2021/09/29 04:27:15;;;;;;;31.25;18.25;;;;;;;5.28;77.84;97617.55;1742681;82;25442;-96
2021/09/29 04:29:42;;;;;;;38.80;18.23;;;;;;;5.31;77.81;97618.55;1757480;81;27414;-95
2021/09/29 04:32:10;;;;;;;38.88;19.67;;;;;;;5.33;77.83;97613.33;1740425;80;25290;-90
2021/09/29 04:34:37;;;;;;;35.85;18.45;;;;;;;5.36;77.69;97612.99;1740300;80;25747;-90
2021/09/29 04:37:04;;;;;;;33.08;18.00;;;;;;;5.36;77.68;97608.14;1740799;82;26150;-89
2021/09/29 04:39:30;;;;;;;34.53;18.80;;;;;;;5.38;77.72;97610.98;1767388;79;26383;-89
2021/09/29 04:41:57;;;;;;;39.73;19.57;;;;;;;5.40;77.69;97608.13;1772326;81;27349;-89
2021/09/29 04:44:24;;;;;;;35.35;17.98;;;;;;;5.41;77.71;97607.13;1771903;81;25262;-88
2021/09/29 04:46:50;;;;;;;42.95;19.30;;;;;;;5.43;77.76;97605.92;1771851;81;25243;-94
2021/09/29 04:49:17;;;;;;;30.43;18.32;;;;;;;5.47;77.77;97606.41;1761353;80;25961;-94
2021/09/29 04:51:44;;;;;;;42.10;20.75;;;;;;;5.49;77.76;97611.60;1713924;80;25328;-96
2021/09/29 04:54:14;;;;;;;39.78;21.23;;;;;;;5.50;77.74;97610.59;1748466;80;27412;-88
2021/09/29 04:56:47;;;;;;;38.55;19.95;;;;;;;5.49;77.69;97610.27;1767531;80;25287;-88
2021/09/29 04:59:14;;;;;;;35.15;19.40;;;;;;;5.50;77.74;97611.42;1759247;80;25744;-94
2021/09/29 05:01:44;;;;;;;36.15;20.70;;;;;;;5.52;77.62;97608.58;1773078;80;25981;-92
2021/09/29 05:04:10;;;;;;;35.38;20.50;;;;;;;5.53;77.54;97604.89;1766355;80;25308;-95
2021/09/29 05:06:40;;;;;;;44.67;20.70;;;;;;;5.49;77.53;97611.09;1746420;80;27369;-90
2021/09/29 05:09:08;;;;;;;32.13;18.98;;;;;;;5.50;77.54;97607.41;1760870;80;25766;-93
2021/09/29 05:11:39;;;;;;;34.10;19.80;;;;;;;5.51;77.60;97602.39;1759763;80;25599;-90
2021/09/29 05:14:06;;;;;;;33.48;19.60;;;;;;;5.52;77.56;97608.58;1756262;79;25993;-90
2021/09/29 05:16:32;;;;;;;37.53;18.10;;;;;;;5.53;77.53;97599.55;1773648;80;25247;-95
2021/09/29 05:18:59;;;;;;;34.63;18.52;;;;;;;5.53;77.51;97594.19;1774074;80;27409;-92
2021/09/29 05:21:25;;;;;;;34.73;19.02;;;;;;;5.52;77.41;97598.70;1773533;80;25347;-96
2021/09/29 05:23:52;;;;;;;30.62;18.10;;;;;;;5.54;77.32;97599.38;1771030;80;25306;-89
2021/09/29 05:26:19;;;;;;;37.63;19.48;;;;;;;5.55;77.29;97601.55;1774554;80;25959;-89
2021/09/29 05:28:50;;;;;;;36.08;18.70;;;;;;;5.55;77.26;97590.33;1774159;80;25382;-95
2021/09/29 05:31:20;;;;;;;30.13;17.93;;;;;;;5.58;77.27;97589.12;1772955;80;27450;-96
2021/09/29 05:33:47;;;;;;;32.50;17.48;;;;;;;5.62;77.29;97597.14;1772310;80;25316;-91
2021/09/29 05:36:13;;;;;;;31.17;17.17;;;;;;;5.64;77.41;97593.80;1766834;80;25721;-88
2021/09/29 05:38:40;;;;;;;32.65;17.73;;;;;;;5.66;77.37;97595.29;1772396;80;25975;-95
2021/09/29 05:41:07;;;;;;;29.10;16.97;;;;;;;5.67;77.27;97596.96;1772353;80;25439;-94
2021/09/29 05:43:34;;;;;;;29.27;17.82;;;;;;;5.67;77.26;97600.14;1755858;80;28233;-94
2021/09/29 05:46:00;;;;;;;37.45;19.52;;;;;;;5.68;77.32;97599.10;1759995;80;25874;-92
2021/09/29 05:48:27;;;;;;;31.93;18.90;;;;;;;5.68;77.27;97599.10;1724654;82;25349;-91
2021/09/29 05:50:53;;;;;;;33.80;19.57;;;;;;;5.67;77.27;97602.82;1723991;80;25961;-90
2021/09/29 05:53:20;;;;;;;31.07;18.57;;;;;;;5.64;77.39;97600.48;1753360;81;25770;-89
2021/09/29 05:55:47;;;;;;;31.77;18.35;;;;;;;5.69;77.49;97600.27;1763977;81;27600;-92
2021/09/29 05:58:13;;;;;;;36.88;17.95;;;;;;;5.72;77.59;97594.57;1736685;82;25847;-88
2021/09/29 06:00:40;;;;;;;41.92;19.45;;;;;;;5.79;77.66;97597.39;1751386;81;25260;-96
2021/09/29 06:03:07;;;;;;;39.67;18.05;;;;;;;5.86;77.85;97592.98;1762340;81;25979;-93
2021/09/29 06:05:34;;;;;;;34.92;18.52;;;;;;;5.92;77.89;97598.16;1762818;81;25727;-93
2021/09/29 06:08:01;;;;;;;32.45;16.57;;;;;;;5.94;77.92;97598.81;1757102;81;27433;-90
2021/09/29 06:10:28;;;;;;;30.30;17.87;;;;;;;5.98;78.03;97596.95;1760875;81;25796;-89
2021/09/29 06:12:55;;;;;;;33.20;17.82;;;;;;;5.98;78.19;97602.31;1763960;81;25681;-90
2021/09/29 06:15:33;;;;;;;29.57;17.82;;;;;;;6.01;78.25;97593.93;1767098;81;25970;-91
2021/09/29 06:18:12;;;;;;;32.98;16.82;;;;;;;6.04;78.44;97595.39;1721045;82;25718;-92
2021/09/29 06:20:35;;;;;;;28.35;16.87;;;;;;;6.10;78.58;97596.03;1728862;82;27583;-94
2021/09/29 06:23:03;;;;;;;29.60;16.97;;;;;;;6.20;78.79;97595.80;1709674;82;25815;-96
2021/09/29 06:25:30;;;;;;;27.00;18.05;;;;;;;6.27;78.81;97596.76;1720846;82;25460;-90
2021/09/29 06:27:57;;;;;;;31.75;17.25;;;;;;;6.36;78.90;97599.70;1767026;81;25974;-92
2021/09/29 06:30:24;;;;;;;30.15;17.52;;;;;;;6.45;78.93;97592.73;1758167;81;25662;-91
2021/09/29 06:32:51;;;;;;;31.35;18.37;;;;;;;6.57;79.01;97590.45;1726126;82;27377;-90
2021/09/29 06:35:18;;;;;;;27.05;16.25;;;;;;;6.71;79.16;97595.53;1763575;81;25317;-92
2021/09/29 06:37:45;;;;;;;29.90;17.60;;;;;;;6.84;79.24;97593.05;1763288;81;25315;-92
2021/09/29 06:40:18;;;;;;;27.85;17.00;;;;;;;6.97;79.22;97587.05;1763668;81;25975;-89
2021/09/29 06:42:46;;;;;;;25.02;16.67;;;;;;;7.10;79.12;97596.63;1760242;81;25874;-94
2021/09/29 06:45:15;;;;;;;26.40;16.40;;;;;;;7.25;79.14;97597.45;1766700;80;26820;-88
2021/09/29 06:47:45;;;;;;;23.10;16.17;;;;;;;7.37;79.12;97591.93;1728868;82;25920;-89
2021/09/29 06:50:12;;;;;;;24.87;15.75;;;;;;;7.51;79.07;97595.11;1733144;82;25815;-89
2021/09/29 06:52:39;;;;;;;25.77;16.05;;;;;;;7.64;78.99;97590.92;1760765;81;26037;-91
2021/09/29 06:55:09;;;;;;;28.02;15.50;;;;;;;7.79;79.01;97596.59;1760708;81;25824;-90
2021/09/29 06:57:36;;;;;;;20.75;14.28;;;;;;;7.95;78.93;97588.83;1764268;80;27468;-91
2021/09/29 07:00:06;;;;;;;21.40;14.15;;;;;;;8.12;78.75;97588.89;1760802;81;25813;-88
2021/09/29 07:02:33;;;;;;;24.27;17.77;;;;;;;8.29;78.69;97590.31;1760829;81;25326;-86
2021/09/29 07:05:00;;;;;;;22.02;15.68;;;;;;;8.47;78.57;97597.94;1747111;81;26023;-89
2021/09/29 07:07:27;;;;;;;28.05;16.07;;;;;;;8.64;78.34;97598.51;1740229;81;25274;-92
2021/09/29 07:09:53;;;;;;;31.12;19.48;;;;;;;8.77;77.96;97595.93;1747627;80;27352;-90
2021/09/29 07:12:20;;;;;;;22.55;14.63;;;;;;;8.89;77.89;97599.75;1761040;81;25202;-92
2021/09/29 07:14:46;;;;;;;20.32;14.90;;;;;;;9.10;78.01;97600.20;1760978;81;25251;-91
2021/09/29 07:17:13;;;;;;;16.85;13.72;;;;;;;9.30;77.86;97593.57;1760001;80;26469;-89
2021/09/29 07:19:40;;;;;;;20.43;14.63;;;;;;;9.52;77.64;97590.29;1741704;81;25673;-90
2021/09/29 07:22:06;;;;;;;21.02;15.00;;;;;;;9.73;77.53;97589.66;1755760;81;27347;-88
2021/09/29 07:24:33;;;;;;;18.15;13.25;;;;;;;9.96;77.23;97592.53;1755702;80;26556;-88
2021/09/29 07:27:00;;;;;;;20.20;12.88;;;;;;;10.19;76.98;97582.76;1760893;81;25318;-89
2021/09/29 07:29:27;;;;;;;20.77;14.10;;;;;;;10.47;76.91;97594.23;1760819;81;26050;-90
2021/09/29 07:31:53;;;;;;;20.57;14.25;;;;;;;10.73;76.46;97593.42;1760968;81;25749;-95
2021/09/29 07:34:23;;;;;;;20.95;14.33;;;;;;;10.96;76.21;97598.39;1744752;81;27579;-88
2021/09/29 07:36:48;;;;;;;23.38;15.28;;;;;;;11.19;76.01;97595.55;1760697;81;25895;-88
2021/09/29 07:39:15;;;;;;;21.00;13.18;;;;;;;11.48;75.76;97597.45;1760862;81;26460;-91
2021/09/29 07:41:42;;;;;;;19.87;12.47;;;;;;;11.80;75.62;97592.50;1753717;81;26818;-89
2021/09/29 07:44:10;;;;;;;17.02;12.70;;;;;;;12.11;75.08;97593.58;1756067;81;25757;-88
2021/09/29 07:46:37;;;;;;;18.85;13.03;;;;;;;12.42;74.78;97596.85;1741357;80;28154;-88
2021/09/29 07:49:03;;;;;;;19.65;12.05;;;;;;;12.67;74.39;97597.72;1754128;81;25286;-89
2021/09/29 07:51:30;;;;;;;15.85;12.07;;;;;;;12.94;74.07;97599.67;1747365;80;26445;-88
2021/09/29 07:53:57;;;;;;;15.50;11.50;;;;;;;13.15;73.88;97599.32;1768820;80;26469;-87
2021/09/29 07:56:24;;;;;;;16.62;12.85;;;;;;;13.27;73.31;97593.47;1746943;80;25845;-87
2021/09/29 07:58:51;;;;;;;15.30;12.75;;;;;;;13.42;73.16;97590.38;1770118;80;27410;-89
2021/09/29 08:01:17;;;;;;;16.80;12.95;;;;;;;13.53;72.99;97586.91;1748932;80;25701;-87
2021/09/29 08:03:45;;;;;;;15.28;12.68;;;;;;;13.53;72.30;97588.80;1740251;80;25717;-88
2021/09/29 08:06:13;;;;;;;16.55;13.08;;;;;;;13.48;72.22;97587.30;1756734;80;26752;-89
2021/09/29 08:08:40;;;;;;;16.93;13.08;;;;;;;13.43;72.35;97586.61;1767552;80;25759;-90
2021/09/29 08:11:07;;;;;;;19.57;11.95;;;;;;;13.41;72.35;97583.29;1741950;80;27379;-88
2021/09/29 08:13:34;;;;;;;16.27;12.47;;;;;;;13.39;71.98;97583.23;1760777;79;25274;-88
2021/09/29 08:16:03;;;;;;;17.82;12.58;;;;;;;13.40;71.84;97582.19;1769706;80;25713;-90
2021/09/29 08:18:30;;;;;;;16.85;12.18;;;;;;;13.31;71.93;97585.17;1744070;80;26852;-94
2021/09/29 08:20:58;;;;;;;17.07;12.20;;;;;;;13.34;71.90;97591.51;1741446;80;26340;-88
2021/09/29 08:23:33;;;;;;;18.70;12.58;;;;;;;13.31;71.81;97585.17;1756462;80;27446;-88
2021/09/29 08:33:49;;;;;;;20.55;13.15;;;;;;;13.77;71.60;97575.68;1749997;80;25302;-87
2021/09/29 08:38:50;;;;;;;19.07;13.35;;;;;;;14.19;71.92;97577.13;1740425;81;25735;-90
2021/09/29 08:43:59;;;;;;;16.65;12.40;;;;;;;14.50;71.04;97572.83;1740333;81;26098;-89
2021/09/29 08:46:31;;;;;;;16.97;12.37;;;;;;;14.76;70.79;97572.95;1739305;80;25830;-90
2021/09/29 08:54:07;;;;;;;17.70;13.10;;;;;;;15.23;70.09;97568.38;1762434;80;25775;-87
2021/09/29 09:15:50;;;;;;;16.02;11.53;;;;;;;16.47;69.20;97557.89;1739563;81;27392;-87
2021/09/29 09:18:16;;;;;;;13.83;11.83;;;;;;;16.72;68.82;97557.55;1755869;81;25350;-89
2021/09/29 09:20:47;;;;;;;15.40;10.95;;;;;;;16.94;68.15;97557.09;1764632;81;25750;-87
2021/09/29 09:23:14;;;;;;;16.48;12.20;;;;;;;17.14;68.05;97552.52;1764225;80;25995;-87
2021/09/29 09:25:44;;;;;;;12.40;10.70;;;;;;;17.29;67.87;97544.00;1764742;81;25716;-91
2021/09/29 09:28:28;;;;;;;18.20;11.83;;;;;;;17.42;67.67;97540.09;1763331;80;28127;-88
2021/09/29 09:31:12;;;;;;;13.72;10.78;;;;;;;17.53;67.48;97545.97;1755843;80;25764;-89
2021/09/29 09:33:56;;;;;;;17.42;11.85;;;;;;;17.73;67.23;97540.55;1752690;81;25883;-87
2021/09/29 09:36:34;;;;;;;13.68;10.82;;;;;;;17.87;66.55;97537.72;1763971;81;26762;-87
2021/09/29 09:39:16;;;;;;;16.73;10.95;;;;;;;18.07;66.70;97528.93;1764850;81;25717;-89
2021/09/29 09:41:56;;;;;;;16.77;11.23;;;;;;;18.33;66.49;97528.95;1754929;81;28259;-88
2021/09/29 09:44:30;;;;;;;15.23;10.75;;;;;;;18.58;65.65;97533.05;1757722;81;25780;-87
2021/09/29 09:47:14;;;;;;;13.22;10.20;;;;;;;18.81;65.61;97533.25;1759291;80;25783;-87
2021/09/29 09:49:56;;;;;;;12.98;10.40;;;;;;;19.02;64.93;97528.22;1741279;81;26553;-88
2021/09/29 09:52:41;;;;;;;14.23;10.82;;;;;;;19.03;64.51;97536.16;1765578;81;25711;-88
2021/09/29 09:55:10;;;;;;;15.15;10.50;;;;;;;19.09;64.04;97528.80;1742488;81;27419;-89
2021/09/29 09:57:39;;;;;;;12.50;11.20;;;;;;;19.20;64.46;97522.88;1744215;81;32708;-87
2021/09/29 10:00:09;;;;;;;15.13;11.05;;;;;;;19.35;64.54;97521.59;1736576;81;25874;-87
2021/09/29 10:02:43;;;;;;;12.25;10.70;;;;;;;19.47;64.25;97519.47;1759125;80;25995;-88
2021/09/29 10:05:12;;;;;;;14.35;10.35;;;;;;;19.55;63.96;97523.13;1745579;80;25837;-87
2021/09/29 10:07:40;;;;;;;12.03;10.60;;;;;;;19.64;63.86;97524.26;1760990;80;27448;-87
2021/09/29 10:10:27;;;;;;;11.75;10.15;;;;;;;19.68;63.43;97520.45;1738777;80;25729;-87
2021/09/29 10:27:14;;;;;;;10.85;9.75;;;;;;;19.69;62.55;97516.59;1750595;80;25772;-88
2021/09/29 10:29:46;;;;;;;12.60;10.03;;;;;;;19.74;62.37;97509.23;1757244;80;25995;-87
2021/09/29 10:32:26;;;;;;;12.07;9.53;;;;;;;19.84;62.26;97511.19;1742927;80;32408;-87
2021/09/29 10:37:55;;;;;;;11.80;9.70;;;;;;;19.96;61.92;97506.84;1738899;80;25868;-87
2021/09/29 10:40:32;;;;;;;15.78;11.68;;;;;;;19.94;62.08;97504.92;1736682;80;25768;-87
2021/09/29 10:43:01;;;;;;;12.90;10.73;;;;;;;19.99;62.04;97504.95;1745451;80;27390;-88
2021/09/29 10:45:40;;;;;;;11.80;10.00;;;;;;;20.03;61.98;97504.70;1760946;80;25723;-87
2021/09/29 10:48:20;;;;;;;11.65;9.90;;;;;;;20.09;61.81;97499.49;1749988;80;27388;-88
2021/09/29 10:51:10;;;;;;;13.85;10.45;;;;;;;20.21;61.66;97501.45;1750051;80;25779;-86
2021/09/29 11:31:02;;;;;;;15.43;10.68;;;;;;;21.21;60.12;97473.00;1761873;80;25765;-87
2021/09/29 11:33:47;;;;;;;11.68;9.30;;;;;;;21.20;59.89;97462.56;1762843;80;26208;-87
2021/09/29 11:36:27;;;;;;;11.25;9.85;;;;;;;21.33;60.10;97463.09;1765888;80;26807;-87
2021/09/29 12:12:30;;;;;;;13.30;9.35;;;;;;;22.22;59.00;97433.28;1750200;80;26289;-88
2021/09/29 12:15:00;;;;;;;13.18;10.03;;;;;;;22.25;58.84;97435.46;1746446;80;25275;-91
2021/09/29 12:17:35;;;;;;;16.05;10.95;;;;;;;22.20;58.59;97417.64;1761368;80;25974;-88
2021/09/29 12:20:16;;;;;;;18.00;10.82;;;;;;;22.29;58.58;97433.80;1750583;81;25766;-88
2021/09/29 12:22:52;;;;;;;13.03;10.28;;;;;;;22.22;58.25;97438.78;1731929;82;27430;-88
2021/09/29 12:25:45;;;;;;;13.90;10.63;;;;;;;22.15;58.30;97436.91;1764809;79;25918;-88
2021/09/29 12:36:15;;;;;;;;;;;;;;;22.03;58.81;97443.31;1774298;80;27441;-88
2021/09/29 12:38:48;;;;;;;15.95;11.35;;;;;;;21.97;58.35;97442.50;1722059;80;25758;-87
2021/09/29 12:41:10;;;;;;;16.90;12.80;;;;;;;21.82;59.24;97443.95;1760181;80;26390;-88
2021/09/29 12:43:37;;;;;;;13.90;12.10;;;;;;;21.82;59.24;97443.95;1766040;79;26188;-89
2021/09/29 12:46:05;;;;;;;16.35;13.13;;;;;;;21.77;59.13;97440.66;1755256;79;25724;-88
2021/09/29 12:48:32;;;;;;;18.77;13.03;;;;;;;21.69;59.17;97427.52;1771260;80;27374;-87
2021/09/29 12:51:00;;;;;;;17.00;13.35;;;;;;;21.72;59.40;97440.70;1772700;79;26341;-89
2021/09/29 12:53:37;;;;;;;13.88;12.40;;;;;;;21.71;59.23;97440.43;1771123;79;25703;-88
2021/09/29 12:56:15;;;;;;;17.80;11.95;;;;;;;21.59;59.37;97440.48;1737421;81;26035;-87
2021/09/29 12:58:34;;;;;;;17.32;13.00;;;;;;;21.59;59.37;97440.48;1746923;81;25768;-91
2021/09/29 13:01:01;;;;;;;16.62;12.13;;;;;;;21.44;59.08;97444.11;1738311;81;27368;-89
2021/09/29 13:03:28;;;;;;;18.02;11.97;;;;;;;21.44;59.08;97444.11;1768993;81;25824;-87
2021/09/29 13:05:57;;;;;;;16.87;13.10;;;;;;;21.44;59.26;97445.48;1767253;80;25736;-88
2021/09/29 13:08:25;;;;;;;16.12;12.63;;;;;;;21.41;59.24;97439.16;1737496;81;26976;-88
2021/09/29 13:10:52;;;;;;;16.73;11.83;;;;;;;21.42;59.39;97438.89;1706584;82;25794;-87
2021/09/29 13:13:20;;;;;;;17.45;11.93;;;;;;;21.43;59.65;97441.09;1746027;80;28290;-87
2021/09/29 13:15:50;;;;;;;14.68;12.25;;;;;;;21.43;59.88;97441.09;1769112;79;26095;-88
2021/09/29 13:18:21;;;;;;;14.18;12.58;;;;;;;21.24;59.96;97419.47;1770973;79;25783;-88
2021/09/29 13:20:48;;;;;;;15.98;12.47;;;;;;;21.30;60.17;97439.75;1752930;80;26766;-91
2021/09/29 13:23:20;;;;;;;16.42;12.82;;;;;;;21.24;60.01;97444.18;1771426;80;25791;-87
2021/09/29 13:36:34;;;;;;;13.72;11.50;;;;;;;21.08;60.76;97438.69;1759121;80;25775;-86
2021/09/29 13:39:06;;;;;;;20.67;12.93;;;;;;;21.08;60.68;97444.17;1771436;80;27372;-87
2021/09/29 13:41:33;;;;;;;13.80;12.35;;;;;;;21.10;60.77;97447.47;1767483;80;26268;-87
2021/09/29 13:44:00;;;;;;;18.20;13.38;;;;;;;21.13;60.65;97446.09;1771231;80;25788;-89
2021/09/29 13:46:27;;;;;;;17.25;13.40;;;;;;;21.14;60.86;97443.05;1771235;80;26599;-89
2021/09/29 13:48:56;;;;;;;17.45;12.78;;;;;;;21.16;60.59;97443.59;1749780;80;25674;-86
2021/09/29 13:51:25;;;;;;;16.00;12.65;;;;;;;21.20;60.62;97438.41;1771395;80;27384;-88
2021/09/29 13:53:56;;;;;;;17.05;12.75;;;;;;;21.31;60.90;97440.58;1764990;80;26525;-91
2021/09/29 13:56:38;;;;;;;17.02;12.80;;;;;;;21.47;61.04;97438.06;1740670;81;25967;-88